createdAt,value
2023-12-23T00:00:42.426Z,0.73
2023-12-23T00:03:10.850Z,1.20
2023-12-23T00:05:39.254Z,0.60
2023-12-23T00:08:07.762Z,0.70
2023-12-23T00:10:36.147Z,0.70
2023-12-23T00:13:06.360Z,1.02
2023-12-23T00:15:34.704Z,1.02
2023-12-23T00:18:03.838Z,0.50
2023-12-23T00:20:32.927Z,1.00
2023-12-23T00:23:01.825Z,0.90
2023-12-23T00:25:30.181Z,0.80
2023-12-23T00:27:58.557Z,1.88
2023-12-23T00:30:29.709Z,0.82
2023-12-23T00:32:58.173Z,1.20
2023-12-23T00:35:27.506Z,0.95
2023-12-23T00:37:55.901Z,0.70
2023-12-23T00:40:24.301Z,1.35
2023-12-23T00:42:52.645Z,1.50
2023-12-23T00:45:21.054Z,0.98
2023-12-23T00:47:51.068Z,1.00
2023-12-23T00:50:19.005Z,2.35
2023-12-23T00:52:47.970Z,1.42
2023-12-23T00:55:17.040Z,1.10
2023-12-23T00:57:45.381Z,0.40
2023-12-23T01:00:14.650Z,1.63
2023-12-23T01:02:42.989Z,2.00
2023-12-23T01:05:13.308Z,1.50
2023-12-23T01:07:43.531Z,1.27
2023-12-23T01:10:11.886Z,1.17
2023-12-23T01:12:41.150Z,1.35
2023-12-23T01:15:10.242Z,1.10
2023-12-23T01:17:38.940Z,1.40
2023-12-23T01:20:08.945Z,0.82
2023-12-23T01:22:38.824Z,0.98
2023-12-23T01:25:07.979Z,1.30
2023-12-23T01:27:36.380Z,1.50
2023-12-23T01:30:04.996Z,1.23
2023-12-23T01:32:33.795Z,0.82
2023-12-23T01:35:02.217Z,1.77
2023-12-23T01:37:30.598Z,1.33
2023-12-23T01:40:00.660Z,0.95
2023-12-23T01:42:29.486Z,1.38
2023-12-23T01:44:58.200Z,1.83
2023-12-23T01:47:27.040Z,1.08
2023-12-23T01:49:55.453Z,1.08
2023-12-23T01:52:24.655Z,1.65
2023-12-23T01:54:53.670Z,1.17
2023-12-23T01:57:24.626Z,1.35
2023-12-23T01:59:53.201Z,0.85
2023-12-23T02:02:23.876Z,1.85
2023-12-23T02:04:53.075Z,0.68
2023-12-23T02:07:21.475Z,1.00
2023-12-23T02:09:50.012Z,1.20
2023-12-23T02:12:27.227Z,1.10
2023-12-23T02:15:04.359Z,0.60
2023-12-23T02:17:33.184Z,0.88
2023-12-23T02:20:02.025Z,0.82
2023-12-23T02:22:32.337Z,1.00
2023-12-23T02:25:00.965Z,1.55
2023-12-23T02:27:41.551Z,0.90
2023-12-23T02:30:14.243Z,1.02
2023-12-23T02:32:44.755Z,0.70
2023-12-23T02:35:14.247Z,1.15
2023-12-23T02:37:44.156Z,1.35
2023-12-23T02:40:13.698Z,1.45
2023-12-23T02:42:42.089Z,1.15
2023-12-23T02:45:11.354Z,1.20
2023-12-23T02:47:39.815Z,1.55
2023-12-23T02:50:09.191Z,1.10
2023-12-23T02:52:38.215Z,0.85
2023-12-23T02:55:09.122Z,1.08
2023-12-23T02:57:37.817Z,0.82
2023-12-23T03:00:07.350Z,1.15
2023-12-23T03:02:36.008Z,0.70
2023-12-23T03:05:04.552Z,0.75
2023-12-23T03:07:32.970Z,0.82
2023-12-23T03:10:01.852Z,1.23
2023-12-23T03:12:31.591Z,1.35
2023-12-23T03:15:00.455Z,1.75
2023-12-23T03:17:29.608Z,1.42
2023-12-23T03:19:58.033Z,0.70
2023-12-23T03:22:26.389Z,1.65
2023-12-23T03:24:55.178Z,1.42
2023-12-23T03:27:23.512Z,1.05
2023-12-23T03:29:53.612Z,1.48
2023-12-23T03:32:22.507Z,1.30
2023-12-23T03:34:50.998Z,1.05
2023-12-23T03:37:19.698Z,0.95
2023-12-23T03:39:48.025Z,1.20
2023-12-23T03:42:16.731Z,1.27
2023-12-23T03:44:45.257Z,1.10
2023-12-23T03:47:15.100Z,0.95
2023-12-23T03:49:43.989Z,1.17
2023-12-23T03:52:12.775Z,0.85
2023-12-23T03:54:41.119Z,1.02
2023-12-23T03:57:09.689Z,0.70
2023-12-23T03:59:38.027Z,1.48
2023-12-23T04:02:06.964Z,1.58
2023-12-23T04:04:40.141Z,1.30
2023-12-23T04:07:09.074Z,1.48
2023-12-23T04:09:37.440Z,1.55
2023-12-23T04:12:06.638Z,1.13
2023-12-23T04:14:36.655Z,1.17
2023-12-23T04:17:05.302Z,1.10
2023-12-23T04:19:33.721Z,1.48
2023-12-23T04:22:04.770Z,1.27
2023-12-23T04:24:33.113Z,1.52
2023-12-23T04:27:01.519Z,1.58
2023-12-23T04:29:30.740Z,0.45
2023-12-23T04:31:59.570Z,1.02
2023-12-23T04:34:27.905Z,1.48
2023-12-23T04:36:56.475Z,1.25
2023-12-23T04:39:26.296Z,1.35
2023-12-23T04:41:55.007Z,0.85
2023-12-23T04:44:23.814Z,1.20
2023-12-23T04:46:53.206Z,1.05
2023-12-23T04:49:21.621Z,1.48
2023-12-23T04:51:50.334Z,1.42
2023-12-23T04:54:17.693Z,0.80
2023-12-23T04:56:48.197Z,1.02
2023-12-23T04:59:16.607Z,1.10
2023-12-23T05:01:45.274Z,1.05
2023-12-23T05:04:14.089Z,1.27
2023-12-23T05:06:42.461Z,1.80
2023-12-23T05:09:11.096Z,0.55
2023-12-23T05:11:39.555Z,1.42
2023-12-23T05:14:09.706Z,0.85
2023-12-23T05:16:38.205Z,1.00
2023-12-23T05:19:06.765Z,1.08
2023-12-23T05:21:35.615Z,0.82
2023-12-23T05:24:03.965Z,1.00
2023-12-23T05:26:32.831Z,0.90
2023-12-23T05:29:01.242Z,0.68
2023-12-23T05:31:30.997Z,0.95
2023-12-23T05:33:59.511Z,0.90
2023-12-23T05:36:27.953Z,0.65
2023-12-23T05:38:56.310Z,0.47
2023-12-23T05:41:24.753Z,0.88
2023-12-23T05:43:53.112Z,0.93
2023-12-23T05:46:21.831Z,0.68
2023-12-23T05:48:51.847Z,0.65
2023-12-23T05:51:20.666Z,0.80
2023-12-23T05:53:49.002Z,1.13
2023-12-23T05:56:17.620Z,1.05
2023-12-23T05:58:46.007Z,0.70
2023-12-23T06:01:14.442Z,0.73
2023-12-23T06:03:43.202Z,0.98
2023-12-23T06:06:13.308Z,0.73
2023-12-23T06:08:42.341Z,0.82
2023-12-23T06:11:13.110Z,0.85
2023-12-23T06:13:41.839Z,1.80
2023-12-23T06:16:10.818Z,0.88
2023-12-23T06:18:39.222Z,1.15
2023-12-23T06:21:07.675Z,1.83
2023-12-23T06:23:37.654Z,1.20
2023-12-23T06:26:06.493Z,0.80
2023-12-23T06:28:34.833Z,0.90
2023-12-23T06:31:03.211Z,1.27
2023-12-23T06:33:31.660Z,0.93
2023-12-23T06:36:00.475Z,0.75
2023-12-23T06:38:28.861Z,1.58
2023-12-23T06:40:58.798Z,1.00
2023-12-23T06:43:45.366Z,0.82
2023-12-23T06:46:15.752Z,1.15
2023-12-23T06:48:44.673Z,0.82
2023-12-23T06:51:13.127Z,0.80
2023-12-23T06:53:41.522Z,0.88
2023-12-23T06:56:13.285Z,0.82
2023-12-23T06:58:41.696Z,0.98
2023-12-23T07:01:10.352Z,0.80
2023-12-23T07:03:39.248Z,1.05
2023-12-23T07:06:08.108Z,0.85
2023-12-23T07:08:36.538Z,1.38
2023-12-23T07:11:05.131Z,0.90
2023-12-23T07:13:34.933Z,0.85
2023-12-23T07:16:04.148Z,0.98
2023-12-23T07:18:32.582Z,1.20
2023-12-23T07:21:02.081Z,0.80
2023-12-23T07:23:30.532Z,1.00
2023-12-23T07:25:58.989Z,1.00
2023-12-23T07:28:28.121Z,0.55
2023-12-23T07:30:58.598Z,0.70
2023-12-23T07:33:26.108Z,0.73
2023-12-23T07:35:54.533Z,0.77
2023-12-23T07:38:23.618Z,0.57
2023-12-23T07:40:52.091Z,0.73
2023-12-23T07:43:20.911Z,0.70
2023-12-23T07:45:49.251Z,0.82
2023-12-23T07:48:19.640Z,0.80
2023-12-23T07:50:48.056Z,0.75
2023-12-23T07:53:16.532Z,0.50
2023-12-23T07:55:45.345Z,0.45
2023-12-23T07:58:13.796Z,0.70
2023-12-23T08:00:42.528Z,0.40
2023-12-23T08:03:11.337Z,0.52
2023-12-23T08:05:41.519Z,0.50
2023-12-23T08:08:11.090Z,0.82
2023-12-23T08:10:40.892Z,0.60
2023-12-23T08:13:09.828Z,0.57
2023-12-23T08:15:38.567Z,0.68
2023-12-23T08:18:07.421Z,0.68
2023-12-23T08:20:35.839Z,0.90
2023-12-23T08:23:06.306Z,1.27
2023-12-23T08:25:35.169Z,0.52
2023-12-23T08:28:03.594Z,0.80
2023-12-23T08:30:32.257Z,0.68
2023-12-23T08:33:00.755Z,0.50
2023-12-23T08:35:29.336Z,0.22
2023-12-23T08:37:58.099Z,0.90
2023-12-23T08:40:28.086Z,0.55
2023-12-23T08:42:56.522Z,0.73
2023-12-23T08:45:24.906Z,0.95
2023-12-23T08:47:53.562Z,0.70
2023-12-23T08:50:24.005Z,0.38
2023-12-23T08:52:52.478Z,0.40
2023-12-23T08:55:21.812Z,0.85
2023-12-23T08:57:51.920Z,0.77
2023-12-23T09:00:21.041Z,0.55
2023-12-23T09:02:49.418Z,0.77
2023-12-23T09:05:17.990Z,1.17
2023-12-23T09:07:47.794Z,0.25
2023-12-23T09:10:16.429Z,0.50
2023-12-23T09:12:44.824Z,1.17
2023-12-23T09:15:14.664Z,0.50
2023-12-23T09:17:43.663Z,0.63
2023-12-23T09:20:12.762Z,0.77
2023-12-23T09:22:41.194Z,0.75
2023-12-23T09:25:10.484Z,0.60
2023-12-23T09:27:38.848Z,0.50
2023-12-23T09:30:08.457Z,0.60
2023-12-23T09:32:38.241Z,0.77
2023-12-23T09:35:07.725Z,1.10
2023-12-23T09:37:37.625Z,1.10
2023-12-23T09:40:07.057Z,1.15
2023-12-23T09:42:35.427Z,0.70
2023-12-23T09:45:04.364Z,0.63
2023-12-23T09:47:33.432Z,0.45
2023-12-23T09:50:03.363Z,0.50
2023-12-23T09:52:32.713Z,0.57
2023-12-23T09:55:03.372Z,0.30
2023-12-23T09:57:33.889Z,0.30
2023-12-23T10:00:02.339Z,0.50
2023-12-23T10:02:31.032Z,0.57
2023-12-23T10:04:59.868Z,0.50
2023-12-23T10:07:29.685Z,0.50
2023-12-23T10:09:59.057Z,0.50
2023-12-23T10:12:28.022Z,0.40
2023-12-23T10:14:56.806Z,0.70
2023-12-23T10:17:25.223Z,0.68
2023-12-23T10:19:56.509Z,0.80
2023-12-23T10:22:30.304Z,0.70
2023-12-23T10:25:02.221Z,0.60
2023-12-23T10:27:35.325Z,0.50
2023-12-23T10:30:09.111Z,0.65
2023-12-23T10:32:39.252Z,0.40
2023-12-23T10:35:11.430Z,0.68
2023-12-23T10:37:43.149Z,0.77
2023-12-23T10:40:16.505Z,0.43
2023-12-23T10:42:45.550Z,0.68
2023-12-23T10:45:14.999Z,0.60
2023-12-23T10:47:46.355Z,0.57
2023-12-23T10:50:17.394Z,0.60
2023-12-23T10:52:48.622Z,0.52
2023-12-23T10:55:18.427Z,0.70
2023-12-23T10:57:49.812Z,0.68
2023-12-23T11:00:19.207Z,0.45
2023-12-23T11:02:51.514Z,0.40
2023-12-23T11:05:23.883Z,0.55
2023-12-23T11:08:01.590Z,0.50
2023-12-23T11:10:33.831Z,0.50
2023-12-23T11:13:02.919Z,0.30
2023-12-23T11:15:31.907Z,0.47
2023-12-23T11:18:03.559Z,0.65
2023-12-23T11:20:46.188Z,0.60
2023-12-23T11:23:36.050Z,0.60
2023-12-23T11:26:06.356Z,0.40
2023-12-23T11:28:38.253Z,0.57
2023-12-23T11:31:07.034Z,0.77
2023-12-23T11:33:38.396Z,0.60
2023-12-23T11:36:07.993Z,0.80
2023-12-23T11:38:53.051Z,0.90
2023-12-23T11:41:22.944Z,0.70
2023-12-23T11:43:52.865Z,0.70
2023-12-23T11:46:25.394Z,0.70
2023-12-23T11:48:54.129Z,0.57
2023-12-23T11:51:23.016Z,0.70
2023-12-23T11:53:53.236Z,0.80
2023-12-23T11:56:22.228Z,0.85
2023-12-23T11:58:50.994Z,0.70
2023-12-23T12:01:20.432Z,0.80
2023-12-23T12:03:50.385Z,0.70
2023-12-23T12:06:19.405Z,0.90
2023-12-23T12:08:48.285Z,0.60
2023-12-23T12:11:19.442Z,0.98
2023-12-23T12:13:48.559Z,0.52
2023-12-23T12:16:17.012Z,0.70
2023-12-23T12:18:45.473Z,0.60
2023-12-23T12:21:13.903Z,0.50
2023-12-23T12:23:43.157Z,0.50
2023-12-23T12:26:11.573Z,0.77
2023-12-23T12:28:43.095Z,0.47
2023-12-23T12:31:14.763Z,0.65
2023-12-23T12:33:44.798Z,0.68
2023-12-23T12:36:15.743Z,0.90
2023-12-23T12:38:45.323Z,0.68
2023-12-23T12:41:14.709Z,0.95
2023-12-23T12:43:45.544Z,0.82
2023-12-23T12:46:16.185Z,1.00
2023-12-23T12:48:47.759Z,0.95
2023-12-23T12:51:18.347Z,0.70
2023-12-23T12:53:48.691Z,0.55
2023-12-23T12:56:22.595Z,1.15
2023-12-23T12:58:54.068Z,0.95
2023-12-23T13:01:23.251Z,0.80
2023-12-23T13:03:51.916Z,0.80
2023-12-23T13:06:20.867Z,0.65
2023-12-23T13:08:49.673Z,0.93
2023-12-23T13:11:18.211Z,0.77
2023-12-23T13:13:47.082Z,0.80
2023-12-23T13:16:16.946Z,1.00
2023-12-23T13:18:53.107Z,0.77
2023-12-23T13:21:27.655Z,0.95
2023-12-23T13:23:56.555Z,0.73
2023-12-23T13:26:25.178Z,0.88
2023-12-23T13:28:53.730Z,1.08
2023-12-23T13:31:24.150Z,0.90
2023-12-23T13:33:52.583Z,0.70
2023-12-23T13:36:21.553Z,0.88
2023-12-23T13:38:50.816Z,1.00
2023-12-23T13:41:26.752Z,0.85
2023-12-23T13:43:55.329Z,0.80
2023-12-23T13:46:25.426Z,1.00
2023-12-23T13:48:54.516Z,0.88
2023-12-23T13:51:23.035Z,0.90
2023-12-23T13:53:51.511Z,0.88
2023-12-23T13:56:20.560Z,0.80
2023-12-23T13:58:49.031Z,1.00
2023-12-23T14:01:17.581Z,0.90
2023-12-23T14:03:47.336Z,0.70
2023-12-23T14:06:15.946Z,1.00
2023-12-23T14:08:44.417Z,0.80
2023-12-23T14:11:12.832Z,0.90
2023-12-23T14:13:41.223Z,1.05
2023-12-23T14:16:10.110Z,0.80
2023-12-23T14:18:38.556Z,0.90
2023-12-23T14:21:08.922Z,0.70
2023-12-23T14:23:37.917Z,1.00
2023-12-23T14:26:06.643Z,0.70
2023-12-23T14:28:36.453Z,0.73
2023-12-23T14:31:05.294Z,1.20
2023-12-23T14:33:33.925Z,0.90
2023-12-23T14:36:03.320Z,1.05
2023-12-23T14:38:33.956Z,0.90
2023-12-23T14:41:02.415Z,0.90
2023-12-23T14:43:30.791Z,1.20
2023-12-23T14:45:59.203Z,1.05
2023-12-23T14:48:27.680Z,1.00
2023-12-23T14:50:56.191Z,0.63
2023-12-23T14:53:25.396Z,1.02
2023-12-23T14:55:55.221Z,0.98
2023-12-23T14:58:23.929Z,1.00
2023-12-23T15:00:52.387Z,0.82
2023-12-23T15:03:20.751Z,1.10
2023-12-23T15:05:49.330Z,0.82
2023-12-23T15:08:17.845Z,1.33
2023-12-23T15:10:46.321Z,0.98
2023-12-23T15:13:20.773Z,1.17
2023-12-23T15:15:49.874Z,1.27
2023-12-23T15:18:18.313Z,1.05
2023-12-23T15:20:47.185Z,1.60
2023-12-23T15:23:15.969Z,1.40
2023-12-23T15:25:44.385Z,0.98
2023-12-23T15:28:12.947Z,1.17
2023-12-23T15:30:43.289Z,0.80
2023-12-23T15:33:11.778Z,1.58
2023-12-23T15:35:40.263Z,1.15
2023-12-23T15:38:08.675Z,1.13
2023-12-23T15:40:37.522Z,1.10
2023-12-23T15:43:06.200Z,1.17
2023-12-23T15:45:34.959Z,1.15
2023-12-23T15:48:06.067Z,1.00
2023-12-23T15:50:34.704Z,1.35
2023-12-23T15:53:04.080Z,1.40
2023-12-23T15:55:35.299Z,1.20
2023-12-23T15:58:06.351Z,1.30
2023-12-23T16:00:34.714Z,1.02
2023-12-23T16:03:04.620Z,1.27
2023-12-23T16:05:33.171Z,1.27
2023-12-23T16:08:04.712Z,1.20
2023-12-23T16:10:33.880Z,1.08
2023-12-23T16:13:03.322Z,1.13
2023-12-23T16:15:31.742Z,0.90
2023-12-23T16:18:00.632Z,1.30
2023-12-23T16:20:30.631Z,1.02
2023-12-23T16:22:59.564Z,1.33
2023-12-23T16:25:28.415Z,1.67
2023-12-23T16:27:56.827Z,1.52
2023-12-23T16:30:25.690Z,1.33
2023-12-23T16:32:54.898Z,1.50
2023-12-23T16:35:24.044Z,1.48
2023-12-23T16:37:54.120Z,1.95
2023-12-23T16:40:23.050Z,1.35
2023-12-23T16:42:52.090Z,1.40
2023-12-23T16:45:20.660Z,1.40
2023-12-23T16:47:49.126Z,1.90
2023-12-23T16:50:17.757Z,1.27
2023-12-23T16:52:46.514Z,1.50
2023-12-23T16:55:16.335Z,1.83
2023-12-23T16:57:44.737Z,1.60
2023-12-23T17:00:14.393Z,1.83
2023-12-23T17:02:43.457Z,1.73
2023-12-23T17:05:12.446Z,1.63
2023-12-23T17:07:41.396Z,2.10
2023-12-23T17:10:10.086Z,1.60
2023-12-23T17:12:39.900Z,1.92
2023-12-23T17:15:09.850Z,1.70
2023-12-23T17:17:39.284Z,2.00
2023-12-23T17:20:09.136Z,2.13
2023-12-23T17:22:37.968Z,1.80
2023-12-23T17:25:06.950Z,1.40
2023-12-23T17:27:35.385Z,2.00
2023-12-23T17:30:05.920Z,1.70
2023-12-23T17:32:34.489Z,1.92
2023-12-23T17:35:04.846Z,1.92
2023-12-23T17:37:33.266Z,1.90
2023-12-23T17:40:02.103Z,1.95
2023-12-23T17:42:30.837Z,1.90
2023-12-23T17:44:59.774Z,2.40
2023-12-23T17:47:29.684Z,1.80
2023-12-23T17:49:58.233Z,1.63
2023-12-23T17:52:27.334Z,1.58
2023-12-23T17:54:55.895Z,1.80
2023-12-23T17:57:24.268Z,1.80
2023-12-23T17:59:52.612Z,1.88
2023-12-23T18:02:22.572Z,1.55
2023-12-23T18:04:52.514Z,1.85
2023-12-23T18:07:20.958Z,1.50
2023-12-23T18:09:49.356Z,1.70
2023-12-23T18:12:17.759Z,1.75
2023-12-23T18:14:46.148Z,1.90
2023-12-23T18:17:14.578Z,1.83
2023-12-23T18:19:42.962Z,1.60
2023-12-23T18:22:12.761Z,1.50
2023-12-23T18:24:42.265Z,1.63
2023-12-23T18:27:10.857Z,1.38
2023-12-23T18:29:39.260Z,1.40
2023-12-23T18:32:08.450Z,1.50
2023-12-23T18:34:37.017Z,1.52
2023-12-23T18:37:05.874Z,1.63
2023-12-23T18:39:36.222Z,1.45
2023-12-23T18:42:04.751Z,1.40
2023-12-23T18:44:33.304Z,1.42
2023-12-23T18:47:01.835Z,1.50
2023-12-23T18:49:30.370Z,1.50
2023-12-23T18:51:59.095Z,1.30
2023-12-23T18:54:27.447Z,1.40
2023-12-23T18:56:57.313Z,1.55
2023-12-23T18:59:25.806Z,2.30
2023-12-23T19:01:54.221Z,1.70
2023-12-23T19:04:23.481Z,1.75
2023-12-23T19:06:51.925Z,1.80
2023-12-23T19:09:20.450Z,2.03
2023-12-23T19:11:49.001Z,1.70
2023-12-23T19:14:20.426Z,1.33
2023-12-23T19:16:48.954Z,1.30
2023-12-23T19:19:18.801Z,1.20
2023-12-23T19:21:47.976Z,1.50
2023-12-23T19:24:16.970Z,1.50
2023-12-23T19:26:45.360Z,1.30
2023-12-23T19:29:14.648Z,1.50
2023-12-23T19:31:45.000Z,1.38
2023-12-23T19:34:13.433Z,1.30
2023-12-23T19:36:41.939Z,1.23
2023-12-23T19:39:10.887Z,1.33
2023-12-23T19:41:39.453Z,1.45
2023-12-23T19:44:07.969Z,1.40
2023-12-23T19:46:37.779Z,1.50
2023-12-23T19:49:07.782Z,1.80
2023-12-23T19:51:36.239Z,1.65
2023-12-23T19:54:06.074Z,1.60
2023-12-23T19:56:34.964Z,1.35
2023-12-23T19:59:05.245Z,1.60
2023-12-23T20:01:34.188Z,1.45
2023-12-23T20:04:02.629Z,1.77
2023-12-23T20:06:33.203Z,1.70
2023-12-23T20:09:04.261Z,1.70
2023-12-23T20:11:33.565Z,1.85
2023-12-23T20:14:02.701Z,1.63
2023-12-23T20:16:31.403Z,2.10
2023-12-23T20:19:00.536Z,1.98
2023-12-23T20:21:29.171Z,1.92
2023-12-23T20:24:00.287Z,2.53
2023-12-23T20:26:29.145Z,2.63
2023-12-23T20:28:57.644Z,3.03
2023-12-23T20:31:26.042Z,3.17
2023-12-23T20:33:54.478Z,3.35
2023-12-23T20:36:24.682Z,3.15
2023-12-23T20:38:53.275Z,2.55
2023-12-23T20:41:23.314Z,2.20
2023-12-23T20:43:51.798Z,2.45
2023-12-23T20:46:20.605Z,2.30
2023-12-23T20:48:49.231Z,2.08
2023-12-23T20:51:18.003Z,2.10
2023-12-23T20:53:47.512Z,2.33
2023-12-23T20:56:23.155Z,2.53
2023-12-23T20:58:51.722Z,2.30
2023-12-23T21:01:24.148Z,2.38
2023-12-23T21:03:52.942Z,2.63
2023-12-23T21:06:21.884Z,2.72
2023-12-23T21:08:50.919Z,2.22
2023-12-23T21:11:20.833Z,2.63
2023-12-23T21:13:51.021Z,3.05
2023-12-23T21:16:19.901Z,2.97
2023-12-23T21:18:48.902Z,2.70
2023-12-23T21:21:17.529Z,2.50
2023-12-23T21:23:46.164Z,2.85
2023-12-23T21:26:21.142Z,2.90
2023-12-23T21:28:51.252Z,3.00
2023-12-23T21:31:19.675Z,3.08
2023-12-23T21:33:48.168Z,3.08
2023-12-23T21:36:17.000Z,2.60
2023-12-23T21:38:45.463Z,3.10
2023-12-23T21:41:13.926Z,2.65
2023-12-23T21:43:42.821Z,3.50
2023-12-23T21:46:12.571Z,2.58
2023-12-23T21:48:41.572Z,2.40
2023-12-23T21:51:10.064Z,2.80
2023-12-23T21:53:38.952Z,2.53
2023-12-23T21:56:08.873Z,2.95
2023-12-23T21:58:38.771Z,2.67
2023-12-23T22:01:07.144Z,2.38
2023-12-23T22:03:37.353Z,3.03
2023-12-23T22:06:06.368Z,3.45
2023-12-23T22:08:34.816Z,3.20
2023-12-23T22:11:03.833Z,3.05
2023-12-23T22:13:32.259Z,3.38
2023-12-23T22:16:01.125Z,3.25
2023-12-23T22:18:29.637Z,2.90
2023-12-23T22:20:59.478Z,2.92
2023-12-23T22:23:28.289Z,2.80
2023-12-23T22:25:57.109Z,3.20
2023-12-23T22:28:25.817Z,2.95
2023-12-23T22:30:54.260Z,3.35
2023-12-23T22:33:22.718Z,2.88
2023-12-23T22:35:51.628Z,2.67
2023-12-23T22:38:21.903Z,3.03
2023-12-23T22:40:50.310Z,2.35
2023-12-23T22:43:21.693Z,2.88
2023-12-23T22:45:50.270Z,2.97
2023-12-23T22:48:19.101Z,2.60
2023-12-23T22:50:47.691Z,3.17
2023-12-23T22:53:16.568Z,3.38
2023-12-23T22:55:46.380Z,2.85
2023-12-23T22:58:15.158Z,3.47
2023-12-23T23:00:44.836Z,3.15
2023-12-23T23:03:13.303Z,3.25
2023-12-23T23:05:41.816Z,2.80
2023-12-23T23:08:10.690Z,2.13
2023-12-23T23:10:39.371Z,1.63
2023-12-23T23:13:09.164Z,1.20
2023-12-23T23:15:37.947Z,1.50
2023-12-23T23:18:06.766Z,1.55
2023-12-23T23:20:36.002Z,1.10
2023-12-23T23:23:04.456Z,0.60
2023-12-23T23:25:32.810Z,0.70
2023-12-23T23:28:01.536Z,0.95
2023-12-23T23:30:31.354Z,0.68
2023-12-23T23:32:59.896Z,0.80
2023-12-23T23:35:28.349Z,1.10
2023-12-23T23:37:56.772Z,1.00
2023-12-23T23:40:25.178Z,0.95
2023-12-23T23:42:54.211Z,1.20
2023-12-23T23:45:22.719Z,0.98
2023-12-23T23:47:52.579Z,0.70
2023-12-23T23:50:20.957Z,1.17
2023-12-23T23:52:49.914Z,1.05
2023-12-23T23:55:18.488Z,1.05
2023-12-23T23:57:47.113Z,0.75
